sensor_id;sensor_type;location;lat;lon;timestamp;temperature;humidity
33476;DHT22;19814;48.224;11.422;2024-03-29T00:00:12;4.10;99.90
33476;DHT22;19814;48.224;11.422;2024-03-29T00:02:38;4.10;99.90
33476;DHT22;19814;48.224;11.422;2024-03-29T00:05:04;4.20;99.90
33476;DHT22;19814;48.224;11.422;2024-03-29T00:07:29;4.20;99.90
33476;DHT22;19814;48.224;11.422;2024-03-29T00:09:55;4.20;99.90
33476;DHT22;19814;48.224;11.422;2024-03-29T00:12:20;4.20;99.90
33476;DHT22;19814;48.224;11.422;2024-03-29T00:14:45;4.20;99.90
33476;DHT22;19814;48.224;11.422;2024-03-29T00:17:13;4.30;99.90
33476;DHT22;19814;48.224;11.422;2024-03-29T00:19:38;4.20;99.90
33476;DHT22;19814;48.224;11.422;2024-03-29T00:22:03;4.30;99.90
33476;DHT22;19814;48.224;11.422;2024-03-29T00:24:29;4.20;99.90
33476;DHT22;19814;48.224;11.422;2024-03-29T00:26:54;4.20;99.90
33476;DHT22;19814;48.224;11.422;2024-03-29T00:29:20;4.20;99.90
33476;DHT22;19814;48.224;11.422;2024-03-29T00:31:45;4.20;99.90
33476;DHT22;19814;48.224;11.422;2024-03-29T00:34:11;4.10;99.90
33476;DHT22;19814;48.224;11.422;2024-03-29T00:36:37;4.10;99.90
33476;DHT22;19814;48.224;11.422;2024-03-29T00:39:02;4.10;99.90
33476;DHT22;19814;48.224;11.422;2024-03-29T00:41:28;4.00;99.90
33476;DHT22;19814;48.224;11.422;2024-03-29T00:43:53;4.10;99.90
33476;DHT22;19814;48.224;11.422;2024-03-29T00:46:18;4.20;99.90
33476;DHT22;19814;48.224;11.422;2024-03-29T00:48:44;4.20;99.90
33476;DHT22;19814;48.224;11.422;2024-03-29T00:51:11;4.30;99.90
33476;DHT22;19814;48.224;11.422;2024-03-29T00:53:37;4.40;99.90
33476;DHT22;19814;48.224;11.422;2024-03-29T00:56:03;4.40;99.90
33476;DHT22;19814;48.224;11.422;2024-03-29T00:58:28;4.50;99.90
33476;DHT22;19814;48.224;11.422;2024-03-29T01:00:54;4.40;99.90
33476;DHT22;19814;48.224;11.422;2024-03-29T01:03:19;4.40;99.90
33476;DHT22;19814;48.224;11.422;2024-03-29T01:05:45;4.40;99.90
33476;DHT22;19814;48.224;11.422;2024-03-29T01:08:11;4.30;99.90
33476;DHT22;19814;48.224;11.422;2024-03-29T01:10:36;4.30;99.90
33476;DHT22;19814;48.224;11.422;2024-03-29T01:13:01;4.20;99.90
33476;DHT22;19814;48.224;11.422;2024-03-29T01:15:27;4.20;99.90
33476;DHT22;19814;48.224;11.422;2024-03-29T01:17:53;4.10;99.90
33476;DHT22;19814;48.224;11.422;2024-03-29T01:20:18;4.10;99.90
33476;DHT22;19814;48.224;11.422;2024-03-29T01:22:44;4.00;99.90
33476;DHT22;19814;48.224;11.422;2024-03-29T01:25:09;4.00;99.90
33476;DHT22;19814;48.224;11.422;2024-03-29T01:27:37;3.70;99.90
33476;DHT22;19814;48.224;11.422;2024-03-29T01:30:02;3.70;99.90
33476;DHT22;19814;48.224;11.422;2024-03-29T01:32:28;3.70;99.90
33476;DHT22;19814;48.224;11.422;2024-03-29T01:34:53;3.70;99.90
33476;DHT22;19814;48.224;11.422;2024-03-29T01:37:19;3.70;99.90
33476;DHT22;19814;48.224;11.422;2024-03-29T01:39:44;3.70;99.90
33476;DHT22;19814;48.224;11.422;2024-03-29T01:42:09;3.70;99.90
33476;DHT22;19814;48.224;11.422;2024-03-29T01:44:35;3.70;99.90
33476;DHT22;19814;48.224;11.422;2024-03-29T01:47:01;3.80;99.90
33476;DHT22;19814;48.224;11.422;2024-03-29T01:49:29;3.90;99.90
33476;DHT22;19814;48.224;11.422;2024-03-29T01:51:55;3.90;99.90
33476;DHT22;19814;48.224;11.422;2024-03-29T01:54:20;3.90;99.90
33476;DHT22;19814;48.224;11.422;2024-03-29T01:56:46;3.90;99.90
33476;DHT22;19814;48.224;11.422;2024-03-29T01:59:15;3.90;99.90
33476;DHT22;19814;48.224;11.422;2024-03-29T02:01:41;4.00;99.90
33476;DHT22;19814;48.224;11.422;2024-03-29T02:04:08;4.10;99.90
33476;DHT22;19814;48.224;11.422;2024-03-29T02:06:33;4.10;99.90
33476;DHT22;19814;48.224;11.422;2024-03-29T02:08:59;4.10;99.90
33476;DHT22;19814;48.224;11.422;2024-03-29T02:11:24;4.20;99.90
33476;DHT22;19814;48.224;11.422;2024-03-29T02:13:49;4.10;99.90
33476;DHT22;19814;48.224;11.422;2024-03-29T02:16:15;4.20;99.90
33476;DHT22;19814;48.224;11.422;2024-03-29T02:18:41;4.10;99.90
33476;DHT22;19814;48.224;11.422;2024-03-29T02:21:07;4.00;99.90
33476;DHT22;19814;48.224;11.422;2024-03-29T02:23:32;4.10;99.90
33476;DHT22;19814;48.224;11.422;2024-03-29T02:26:01;4.00;99.90
33476;DHT22;19814;48.224;11.422;2024-03-29T02:28:26;4.00;99.90
33476;DHT22;19814;48.224;11.422;2024-03-29T02:30:52;3.90;99.90
33476;DHT22;19814;48.224;11.422;2024-03-29T02:33:17;3.90;99.90
33476;DHT22;19814;48.224;11.422;2024-03-29T02:35:43;4.00;99.90
33476;DHT22;19814;48.224;11.422;2024-03-29T02:38:10;4.10;99.90
33476;DHT22;19814;48.224;11.422;2024-03-29T02:40:36;4.20;99.90
33476;DHT22;19814;48.224;11.422;2024-03-29T02:43:02;4.10;99.90
33476;DHT22;19814;48.224;11.422;2024-03-29T02:45:27;4.20;99.90
33476;DHT22;19814;48.224;11.422;2024-03-29T02:47:52;4.20;99.90
33476;DHT22;19814;48.224;11.422;2024-03-29T02:50:18;4.30;99.90
33476;DHT22;19814;48.224;11.422;2024-03-29T02:52:43;4.20;99.90
33476;DHT22;19814;48.224;11.422;2024-03-29T02:55:09;4.20;99.90
33476;DHT22;19814;48.224;11.422;2024-03-29T02:57:38;4.20;99.90
33476;DHT22;19814;48.224;11.422;2024-03-29T03:00:04;4.20;99.90
33476;DHT22;19814;48.224;11.422;2024-03-29T03:02:30;4.30;99.90
33476;DHT22;19814;48.224;11.422;2024-03-29T03:04:55;4.30;99.90
33476;DHT22;19814;48.224;11.422;2024-03-29T03:07:21;4.20;99.90
33476;DHT22;19814;48.224;11.422;2024-03-29T03:10:05;4.20;99.90
33476;DHT22;19814;48.224;11.422;2024-03-29T03:12:49;4.20;99.90
33476;DHT22;19814;48.224;11.422;2024-03-29T03:15:15;4.20;99.90
33476;DHT22;19814;48.224;11.422;2024-03-29T03:17:40;4.20;99.90
33476;DHT22;19814;48.224;11.422;2024-03-29T03:20:06;4.20;99.90
33476;DHT22;19814;48.224;11.422;2024-03-29T03:22:32;4.10;99.90
33476;DHT22;19814;48.224;11.422;2024-03-29T03:24:57;4.10;99.90
33476;DHT22;19814;48.224;11.422;2024-03-29T03:27:23;4.00;99.90
33476;DHT22;19814;48.224;11.422;2024-03-29T03:29:49;3.90;99.90
33476;DHT22;19814;48.224;11.422;2024-03-29T03:32:14;3.90;99.90
33476;DHT22;19814;48.224;11.422;2024-03-29T03:34:39;3.80;99.90
33476;DHT22;19814;48.224;11.422;2024-03-29T03:37:05;3.90;99.90
33476;DHT22;19814;48.224;11.422;2024-03-29T03:39:30;3.90;99.90
33476;DHT22;19814;48.224;11.422;2024-03-29T03:41:56;3.90;99.90
33476;DHT22;19814;48.224;11.422;2024-03-29T03:44:21;3.90;99.90
33476;DHT22;19814;48.224;11.422;2024-03-29T03:46:50;3.90;99.90
33476;DHT22;19814;48.224;11.422;2024-03-29T03:49:15;4.00;99.90
33476;DHT22;19814;48.224;11.422;2024-03-29T03:51:41;4.00;99.90
33476;DHT22;19814;48.224;11.422;2024-03-29T03:54:06;4.00;99.90
33476;DHT22;19814;48.224;11.422;2024-03-29T03:56:31;4.10;99.90
33476;DHT22;19814;48.224;11.422;2024-03-29T03:58:57;4.10;99.90
33476;DHT22;19814;48.224;11.422;2024-03-29T04:01:23;4.10;99.90
33476;DHT22;19814;48.224;11.422;2024-03-29T04:03:48;4.20;99.90
33476;DHT22;19814;48.224;11.422;2024-03-29T04:06:14;4.30;99.90
33476;DHT22;19814;48.224;11.422;2024-03-29T04:08:39;4.40;99.90
33476;DHT22;19814;48.224;11.422;2024-03-29T04:11:05;4.50;99.90
33476;DHT22;19814;48.224;11.422;2024-03-29T04:13:30;4.40;99.90
33476;DHT22;19814;48.224;11.422;2024-03-29T04:16:02;4.30;99.90
33476;DHT22;19814;48.224;11.422;2024-03-29T04:18:28;4.20;99.90
33476;DHT22;19814;48.224;11.422;2024-03-29T04:20:57;4.20;99.90
33476;DHT22;19814;48.224;11.422;2024-03-29T04:23:22;4.20;99.90
33476;DHT22;19814;48.224;11.422;2024-03-29T04:25:52;4.30;99.90
33476;DHT22;19814;48.224;11.422;2024-03-29T04:28:17;4.30;99.90
33476;DHT22;19814;48.224;11.422;2024-03-29T04:30:50;4.40;99.90
33476;DHT22;19814;48.224;11.422;2024-03-29T04:33:15;4.40;99.90
33476;DHT22;19814;48.224;11.422;2024-03-29T04:35:41;4.40;99.90
33476;DHT22;19814;48.224;11.422;2024-03-29T04:38:15;4.40;99.90
33476;DHT22;19814;48.224;11.422;2024-03-29T04:40:40;4.30;99.90
33476;DHT22;19814;48.224;11.422;2024-03-29T04:43:06;4.30;99.90
33476;DHT22;19814;48.224;11.422;2024-03-29T04:45:31;4.30;99.90
33476;DHT22;19814;48.224;11.422;2024-03-29T04:47:57;4.30;99.90
33476;DHT22;19814;48.224;11.422;2024-03-29T04:50:22;4.30;99.90
33476;DHT22;19814;48.224;11.422;2024-03-29T04:52:47;4.40;99.90
33476;DHT22;19814;48.224;11.422;2024-03-29T04:55:13;4.30;99.90
33476;DHT22;19814;48.224;11.422;2024-03-29T04:57:38;4.30;99.90
33476;DHT22;19814;48.224;11.422;2024-03-29T05:00:04;4.30;99.90
33476;DHT22;19814;48.224;11.422;2024-03-29T05:02:30;4.20;99.90
33476;DHT22;19814;48.224;11.422;2024-03-29T05:04:55;4.10;99.90
33476;DHT22;19814;48.224;11.422;2024-03-29T05:07:23;4.20;99.90
33476;DHT22;19814;48.224;11.422;2024-03-29T05:09:48;4.20;99.90
33476;DHT22;19814;48.224;11.422;2024-03-29T05:12:14;4.30;99.90
33476;DHT22;19814;48.224;11.422;2024-03-29T05:14:39;4.40;99.90
33476;DHT22;19814;48.224;11.422;2024-03-29T05:17:05;4.40;99.90
33476;DHT22;19814;48.224;11.422;2024-03-29T05:19:30;4.50;99.90
33476;DHT22;19814;48.224;11.422;2024-03-29T05:21:56;4.60;99.90
33476;DHT22;19814;48.224;11.422;2024-03-29T05:24:21;4.60;99.90
33476;DHT22;19814;48.224;11.422;2024-03-29T05:26:47;4.60;99.90
33476;DHT22;19814;48.224;11.422;2024-03-29T05:29:12;4.60;99.90
33476;DHT22;19814;48.224;11.422;2024-03-29T05:31:38;4.60;99.90
33476;DHT22;19814;48.224;11.422;2024-03-29T05:34:03;4.70;99.90
33476;DHT22;19814;48.224;11.422;2024-03-29T05:36:29;4.80;99.90
33476;DHT22;19814;48.224;11.422;2024-03-29T05:38:55;4.80;99.90
33476;DHT22;19814;48.224;11.422;2024-03-29T05:41:21;4.90;99.90
33476;DHT22;19814;48.224;11.422;2024-03-29T05:43:46;5.10;99.90
33476;DHT22;19814;48.224;11.422;2024-03-29T05:46:12;5.20;99.90
33476;DHT22;19814;48.224;11.422;2024-03-29T05:48:40;5.20;99.90
33476;DHT22;19814;48.224;11.422;2024-03-29T05:51:05;5.20;99.90
33476;DHT22;19814;48.224;11.422;2024-03-29T05:53:31;5.20;99.90
33476;DHT22;19814;48.224;11.422;2024-03-29T05:55:56;5.30;99.90
33476;DHT22;19814;48.224;11.422;2024-03-29T05:58:21;5.30;99.90
33476;DHT22;19814;48.224;11.422;2024-03-29T06:00:48;5.40;99.90
33476;DHT22;19814;48.224;11.422;2024-03-29T06:03:14;5.40;99.90
33476;DHT22;19814;48.224;11.422;2024-03-29T06:05:40;5.50;99.90
33476;DHT22;19814;48.224;11.422;2024-03-29T06:08:06;5.60;99.90
33476;DHT22;19814;48.224;11.422;2024-03-29T06:10:31;5.70;99.90
33476;DHT22;19814;48.224;11.422;2024-03-29T06:12:57;5.80;99.90
33476;DHT22;19814;48.224;11.422;2024-03-29T06:15:31;6.00;99.90
33476;DHT22;19814;48.224;11.422;2024-03-29T06:18:16;6.20;99.90
33476;DHT22;19814;48.224;11.422;2024-03-29T06:20:41;6.50;99.90
33476;DHT22;19814;48.224;11.422;2024-03-29T06:23:07;6.70;99.90
33476;DHT22;19814;48.224;11.422;2024-03-29T06:25:32;7.00;99.90
33476;DHT22;19814;48.224;11.422;2024-03-29T06:27:58;7.20;99.90
33476;DHT22;19814;48.224;11.422;2024-03-29T06:30:25;7.30;99.90
33476;DHT22;19814;48.224;11.422;2024-03-29T06:32:50;7.50;99.90
33476;DHT22;19814;48.224;11.422;2024-03-29T06:35:16;7.70;99.80
33476;DHT22;19814;48.224;11.422;2024-03-29T06:37:41;7.90;99.90
33476;DHT22;19814;48.224;11.422;2024-03-29T06:40:07;8.00;99.00
33476;DHT22;19814;48.224;11.422;2024-03-29T06:42:33;8.00;98.80
33476;DHT22;19814;48.224;11.422;2024-03-29T06:44:59;8.10;99.20
33476;DHT22;19814;48.224;11.422;2024-03-29T06:47:27;8.40;99.20
33476;DHT22;19814;48.224;11.422;2024-03-29T06:49:53;8.50;97.40
33476;DHT22;19814;48.224;11.422;2024-03-29T06:52:18;8.50;98.60
33476;DHT22;19814;48.224;11.422;2024-03-29T06:54:44;8.70;98.60
33476;DHT22;19814;48.224;11.422;2024-03-29T06:57:09;9.00;97.80
33476;DHT22;19814;48.224;11.422;2024-03-29T06:59:37;9.20;99.10
33476;DHT22;19814;48.224;11.422;2024-03-29T07:02:02;9.50;97.70
33476;DHT22;19814;48.224;11.422;2024-03-29T07:04:28;9.80;96.90
33476;DHT22;19814;48.224;11.422;2024-03-29T07:06:54;9.80;95.50
33476;DHT22;19814;48.224;11.422;2024-03-29T07:09:20;9.70;95.40
33476;DHT22;19814;48.224;11.422;2024-03-29T07:11:46;10.00;95.40
33476;DHT22;19814;48.224;11.422;2024-03-29T07:14:13;10.40;93.70
33476;DHT22;19814;48.224;11.422;2024-03-29T07:16:38;10.60;94.80
33476;DHT22;19814;48.224;11.422;2024-03-29T07:19:04;10.90;94.80
33476;DHT22;19814;48.224;11.422;2024-03-29T07:21:29;11.10;93.80
33476;DHT22;19814;48.224;11.422;2024-03-29T07:23:55;11.60;92.50
33476;DHT22;19814;48.224;11.422;2024-03-29T07:26:20;11.80;91.60
33476;DHT22;19814;48.224;11.422;2024-03-29T07:28:45;11.90;92.00
33476;DHT22;19814;48.224;11.422;2024-03-29T07:31:11;11.90;92.10
33476;DHT22;19814;48.224;11.422;2024-03-29T07:33:36;12.10;91.40
33476;DHT22;19814;48.224;11.422;2024-03-29T07:36:02;12.50;90.50
33476;DHT22;19814;48.224;11.422;2024-03-29T07:38:29;12.70;91.40
33476;DHT22;19814;48.224;11.422;2024-03-29T07:40:55;13.20;87.80
33476;DHT22;19814;48.224;11.422;2024-03-29T07:43:22;13.30;87.90
33476;DHT22;19814;48.224;11.422;2024-03-29T07:45:47;13.50;87.40
33476;DHT22;19814;48.224;11.422;2024-03-29T07:48:14;12.80;90.10
33476;DHT22;19814;48.224;11.422;2024-03-29T07:50:40;12.20;89.70
33476;DHT22;19814;48.224;11.422;2024-03-29T07:53:06;12.10;88.80
33476;DHT22;19814;48.224;11.422;2024-03-29T07:55:32;11.90;91.90
33476;DHT22;19814;48.224;11.422;2024-03-29T07:57:57;12.00;91.10
33476;DHT22;19814;48.224;11.422;2024-03-29T08:00:23;12.00;90.90
33476;DHT22;19814;48.224;11.422;2024-03-29T08:02:49;12.20;91.00
33476;DHT22;19814;48.224;11.422;2024-03-29T08:05:15;12.40;91.20
33476;DHT22;19814;48.224;11.422;2024-03-29T08:07:41;12.40;91.80
33476;DHT22;19814;48.224;11.422;2024-03-29T08:10:06;12.70;90.70
33476;DHT22;19814;48.224;11.422;2024-03-29T08:12:32;13.00;90.30
33476;DHT22;19814;48.224;11.422;2024-03-29T08:14:58;13.20;89.90
33476;DHT22;19814;48.224;11.422;2024-03-29T08:17:24;13.50;89.40
33476;DHT22;19814;48.224;11.422;2024-03-29T08:19:49;14.00;88.20
33476;DHT22;19814;48.224;11.422;2024-03-29T08:22:14;15.20;90.50
33476;DHT22;19814;48.224;11.422;2024-03-29T08:24:41;16.00;83.10
33476;DHT22;19814;48.224;11.422;2024-03-29T08:27:06;16.80;84.10
33476;DHT22;19814;48.224;11.422;2024-03-29T08:29:32;17.10;76.90
33476;DHT22;19814;48.224;11.422;2024-03-29T08:31:57;17.40;76.20
33476;DHT22;19814;48.224;11.422;2024-03-29T08:34:22;17.50;76.90
33476;DHT22;19814;48.224;11.422;2024-03-29T08:36:48;17.00;77.60
33476;DHT22;19814;48.224;11.422;2024-03-29T08:39:13;16.90;80.10
33476;DHT22;19814;48.224;11.422;2024-03-29T08:41:39;17.40;81.70
33476;DHT22;19814;48.224;11.422;2024-03-29T08:44:05;18.00;83.60
33476;DHT22;19814;48.224;11.422;2024-03-29T08:46:30;18.20;78.10
33476;DHT22;19814;48.224;11.422;2024-03-29T08:48:56;18.20;77.90
33476;DHT22;19814;48.224;11.422;2024-03-29T08:51:21;18.40;78.10
33476;DHT22;19814;48.224;11.422;2024-03-29T08:53:47;18.50;76.50
33476;DHT22;19814;48.224;11.422;2024-03-29T08:56:12;18.10;76.40
33476;DHT22;19814;48.224;11.422;2024-03-29T08:58:38;17.90;78.50
33476;DHT22;19814;48.224;11.422;2024-03-29T09:01:04;18.00;79.40
33476;DHT22;19814;48.224;11.422;2024-03-29T09:03:29;17.70;76.70
33476;DHT22;19814;48.224;11.422;2024-03-29T09:05:55;17.50;75.20
33476;DHT22;19814;48.224;11.422;2024-03-29T09:08:20;17.30;76.90
33476;DHT22;19814;48.224;11.422;2024-03-29T09:10:46;17.60;79.70
33476;DHT22;19814;48.224;11.422;2024-03-29T09:13:11;17.70;72.50
33476;DHT22;19814;48.224;11.422;2024-03-29T09:15:37;17.80;75.10
33476;DHT22;19814;48.224;11.422;2024-03-29T09:18:03;18.40;73.40
33476;DHT22;19814;48.224;11.422;2024-03-29T09:20:36;18.50;72.10
33476;DHT22;19814;48.224;11.422;2024-03-29T09:23:01;18.80;76.20
33476;DHT22;19814;48.224;11.422;2024-03-29T09:25:27;18.70;73.40
33476;DHT22;19814;48.224;11.422;2024-03-29T09:27:52;18.20;71.50
33476;DHT22;19814;48.224;11.422;2024-03-29T09:30:17;18.70;71.70
33476;DHT22;19814;48.224;11.422;2024-03-29T09:32:45;18.50;70.00
33476;DHT22;19814;48.224;11.422;2024-03-29T09:35:10;18.80;69.90
33476;DHT22;19814;48.224;11.422;2024-03-29T09:37:36;18.80;69.00
33476;DHT22;19814;48.224;11.422;2024-03-29T09:40:03;19.30;67.80
33476;DHT22;19814;48.224;11.422;2024-03-29T09:42:29;19.50;68.40
33476;DHT22;19814;48.224;11.422;2024-03-29T09:44:57;19.70;65.30
33476;DHT22;19814;48.224;11.422;2024-03-29T09:47:23;20.00;70.40
33476;DHT22;19814;48.224;11.422;2024-03-29T09:49:51;20.50;67.80
33476;DHT22;19814;48.224;11.422;2024-03-29T09:52:18;20.80;64.10
33476;DHT22;19814;48.224;11.422;2024-03-29T09:54:44;20.10;65.10
33476;DHT22;19814;48.224;11.422;2024-03-29T09:57:09;19.90;68.30
33476;DHT22;19814;48.224;11.422;2024-03-29T09:59:37;19.80;70.80
33476;DHT22;19814;48.224;11.422;2024-03-29T10:02:04;19.40;68.60
33476;DHT22;19814;48.224;11.422;2024-03-29T10:04:36;19.30;66.00
33476;DHT22;19814;48.224;11.422;2024-03-29T10:07:02;18.70;67.50
33476;DHT22;19814;48.224;11.422;2024-03-29T10:09:28;18.60;69.00
33476;DHT22;19814;48.224;11.422;2024-03-29T10:11:57;18.50;70.60
33476;DHT22;19814;48.224;11.422;2024-03-29T10:14:23;18.50;73.30
33476;DHT22;19814;48.224;11.422;2024-03-29T10:16:50;18.10;75.40
33476;DHT22;19814;48.224;11.422;2024-03-29T10:19:16;18.10;75.70
33476;DHT22;19814;48.224;11.422;2024-03-29T10:21:41;18.10;78.00
33476;DHT22;19814;48.224;11.422;2024-03-29T10:24:11;18.40;76.80
33476;DHT22;19814;48.224;11.422;2024-03-29T10:26:37;18.60;76.60
33476;DHT22;19814;48.224;11.422;2024-03-29T10:29:04;18.60;77.10
33476;DHT22;19814;48.224;11.422;2024-03-29T10:31:33;18.80;78.20
33476;DHT22;19814;48.224;11.422;2024-03-29T10:34:01;19.10;78.70
33476;DHT22;19814;48.224;11.422;2024-03-29T10:36:27;19.80;80.30
33476;DHT22;19814;48.224;11.422;2024-03-29T10:38:52;20.50;75.40
33476;DHT22;19814;48.224;11.422;2024-03-29T10:41:18;21.40;71.10
33476;DHT22;19814;48.224;11.422;2024-03-29T10:43:43;22.20;74.40
33476;DHT22;19814;48.224;11.422;2024-03-29T10:46:11;22.90;66.60
33476;DHT22;19814;48.224;11.422;2024-03-29T10:48:36;23.60;68.40
33476;DHT22;19814;48.224;11.422;2024-03-29T10:51:02;23.30;55.60
33476;DHT22;19814;48.224;11.422;2024-03-29T10:53:28;22.30;58.00
33476;DHT22;19814;48.224;11.422;2024-03-29T10:55:54;21.70;61.20
33476;DHT22;19814;48.224;11.422;2024-03-29T10:58:21;21.20;57.80
33476;DHT22;19814;48.224;11.422;2024-03-29T11:00:50;20.50;61.20
33476;DHT22;19814;48.224;11.422;2024-03-29T11:03:18;20.30;69.10
33476;DHT22;19814;48.224;11.422;2024-03-29T11:05:48;21.00;70.30
33476;DHT22;19814;48.224;11.422;2024-03-29T11:08:24;21.10;69.60
33476;DHT22;19814;48.224;11.422;2024-03-29T11:10:57;21.40;60.20
33476;DHT22;19814;48.224;11.422;2024-03-29T11:16:07;22.00;70.20
33476;DHT22;19814;48.224;11.422;2024-03-29T11:18:35;22.70;68.90
33476;DHT22;19814;48.224;11.422;2024-03-29T11:21:00;22.80;65.30
33476;DHT22;19814;48.224;11.422;2024-03-29T11:23:27;22.60;68.60
33476;DHT22;19814;48.224;11.422;2024-03-29T11:25:53;22.60;64.80
33476;DHT22;19814;48.224;11.422;2024-03-29T11:28:22;22.20;66.30
33476;DHT22;19814;48.224;11.422;2024-03-29T11:30:51;22.40;67.60
33476;DHT22;19814;48.224;11.422;2024-03-29T11:35:57;22.50;72.50
33476;DHT22;19814;48.224;11.422;2024-03-29T11:38:29;23.40;68.10
33476;DHT22;19814;48.224;11.422;2024-03-29T11:40:55;24.60;74.10
33476;DHT22;19814;48.224;11.422;2024-03-29T11:43:25;26.10;72.20
33476;DHT22;19814;48.224;11.422;2024-03-29T11:45:53;27.80;62.50
33476;DHT22;19814;48.224;11.422;2024-03-29T11:48:21;27.90;63.40
33476;DHT22;19814;48.224;11.422;2024-03-29T11:50:48;27.50;62.50
33476;DHT22;19814;48.224;11.422;2024-03-29T11:53:13;28.30;61.40
33476;DHT22;19814;48.224;11.422;2024-03-29T11:55:39;29.10;67.00
33476;DHT22;19814;48.224;11.422;2024-03-29T11:58:04;29.50;57.10
33476;DHT22;19814;48.224;11.422;2024-03-29T12:00:30;29.00;54.60
33476;DHT22;19814;48.224;11.422;2024-03-29T12:02:56;28.80;61.40
33476;DHT22;19814;48.224;11.422;2024-03-29T12:05:22;29.10;54.20
33476;DHT22;19814;48.224;11.422;2024-03-29T12:07:48;29.00;54.90
33476;DHT22;19814;48.224;11.422;2024-03-29T12:10:13;29.00;58.30
33476;DHT22;19814;48.224;11.422;2024-03-29T12:12:39;28.50;58.20
33476;DHT22;19814;48.224;11.422;2024-03-29T12:15:07;27.60;59.70
33476;DHT22;19814;48.224;11.422;2024-03-29T12:17:32;26.80;60.40
33476;DHT22;19814;48.224;11.422;2024-03-29T12:19:58;26.30;64.60
33476;DHT22;19814;48.224;11.422;2024-03-29T12:22:29;25.90;63.50
33476;DHT22;19814;48.224;11.422;2024-03-29T12:24:54;25.80;63.70
33476;DHT22;19814;48.224;11.422;2024-03-29T12:27:20;25.40;66.00
33476;DHT22;19814;48.224;11.422;2024-03-29T12:29:47;26.30;66.00
33476;DHT22;19814;48.224;11.422;2024-03-29T12:32:12;27.60;69.10
33476;DHT22;19814;48.224;11.422;2024-03-29T12:34:38;27.80;58.40
33476;DHT22;19814;48.224;11.422;2024-03-29T12:37:03;26.60;63.40
33476;DHT22;19814;48.224;11.422;2024-03-29T12:39:30;26.20;62.00
33476;DHT22;19814;48.224;11.422;2024-03-29T12:41:58;25.70;63.30
33476;DHT22;19814;48.224;11.422;2024-03-29T12:44:26;25.20;65.60
33476;DHT22;19814;48.224;11.422;2024-03-29T12:46:51;25.10;66.20
33476;DHT22;19814;48.224;11.422;2024-03-29T12:49:17;24.70;67.80
33476;DHT22;19814;48.224;11.422;2024-03-29T12:51:44;24.50;69.00
33476;DHT22;19814;48.224;11.422;2024-03-29T12:54:10;24.10;69.40
33476;DHT22;19814;48.224;11.422;2024-03-29T12:56:35;23.90;67.30
33476;DHT22;19814;48.224;11.422;2024-03-29T12:59:02;23.70;68.00
33476;DHT22;19814;48.224;11.422;2024-03-29T13:01:27;23.80;67.00
33476;DHT22;19814;48.224;11.422;2024-03-29T13:03:52;23.30;68.40
33476;DHT22;19814;48.224;11.422;2024-03-29T13:06:18;23.10;68.50
33476;DHT22;19814;48.224;11.422;2024-03-29T13:08:43;22.80;67.30
33476;DHT22;19814;48.224;11.422;2024-03-29T13:11:09;22.90;68.70
33476;DHT22;19814;48.224;11.422;2024-03-29T13:13:36;22.90;68.50
33476;DHT22;19814;48.224;11.422;2024-03-29T13:16:01;22.80;69.10
33476;DHT22;19814;48.224;11.422;2024-03-29T13:18:27;22.50;70.10
33476;DHT22;19814;48.224;11.422;2024-03-29T13:20:52;22.50;70.70
33476;DHT22;19814;48.224;11.422;2024-03-29T13:23:18;22.70;70.90
33476;DHT22;19814;48.224;11.422;2024-03-29T13:25:43;23.10;68.70
33476;DHT22;19814;48.224;11.422;2024-03-29T13:28:09;23.30;71.50
33476;DHT22;19814;48.224;11.422;2024-03-29T13:30:36;23.50;70.00
33476;DHT22;19814;48.224;11.422;2024-03-29T13:33:08;23.30;59.50
33476;DHT22;19814;48.224;11.422;2024-03-29T13:35:35;22.90;66.20
33476;DHT22;19814;48.224;11.422;2024-03-29T13:38:01;23.10;67.60
33476;DHT22;19814;48.224;11.422;2024-03-29T13:40:26;23.10;66.60
33476;DHT22;19814;48.224;11.422;2024-03-29T13:42:52;23.00;65.40
33476;DHT22;19814;48.224;11.422;2024-03-29T13:45:17;23.10;56.30
33476;DHT22;19814;48.224;11.422;2024-03-29T13:47:44;22.90;54.20
33476;DHT22;19814;48.224;11.422;2024-03-29T13:50:11;22.90;51.50
33476;DHT22;19814;48.224;11.422;2024-03-29T13:52:37;22.80;56.20
33476;DHT22;19814;48.224;11.422;2024-03-29T13:55:03;22.60;53.40
33476;DHT22;19814;48.224;11.422;2024-03-29T13:57:29;22.40;55.80
33476;DHT22;19814;48.224;11.422;2024-03-29T13:59:54;22.70;51.10
33476;DHT22;19814;48.224;11.422;2024-03-29T14:02:20;22.70;56.50
33476;DHT22;19814;48.224;11.422;2024-03-29T14:04:46;22.80;51.50
33476;DHT22;19814;48.224;11.422;2024-03-29T14:07:12;22.70;52.20
33476;DHT22;19814;48.224;11.422;2024-03-29T14:09:39;22.50;53.10
33476;DHT22;19814;48.224;11.422;2024-03-29T14:12:05;22.20;52.60
33476;DHT22;19814;48.224;11.422;2024-03-29T14:14:31;22.20;52.80
33476;DHT22;19814;48.224;11.422;2024-03-29T14:16:57;21.90;54.10
33476;DHT22;19814;48.224;11.422;2024-03-29T14:19:22;22.00;55.90
33476;DHT22;19814;48.224;11.422;2024-03-29T14:21:48;21.90;50.20
33476;DHT22;19814;48.224;11.422;2024-03-29T14:24:13;21.90;51.00
33476;DHT22;19814;48.224;11.422;2024-03-29T14:26:40;21.80;50.60
33476;DHT22;19814;48.224;11.422;2024-03-29T14:29:06;21.90;52.50
33476;DHT22;19814;48.224;11.422;2024-03-29T14:31:32;21.90;50.80
33476;DHT22;19814;48.224;11.422;2024-03-29T14:33:57;21.90;51.10
33476;DHT22;19814;48.224;11.422;2024-03-29T14:36:23;21.90;51.90
33476;DHT22;19814;48.224;11.422;2024-03-29T14:38:49;22.00;51.70
33476;DHT22;19814;48.224;11.422;2024-03-29T14:41:15;22.00;51.00
33476;DHT22;19814;48.224;11.422;2024-03-29T14:43:41;21.80;49.00
33476;DHT22;19814;48.224;11.422;2024-03-29T14:46:06;21.80;49.00
33476;DHT22;19814;48.224;11.422;2024-03-29T14:48:32;21.80;50.50
33476;DHT22;19814;48.224;11.422;2024-03-29T14:50:57;21.80;52.00
33476;DHT22;19814;48.224;11.422;2024-03-29T14:53:24;21.80;50.40
33476;DHT22;19814;48.224;11.422;2024-03-29T14:55:49;21.90;50.60
33476;DHT22;19814;48.224;11.422;2024-03-29T14:58:15;21.80;50.40
33476;DHT22;19814;48.224;11.422;2024-03-29T15:00:40;21.90;48.70
33476;DHT22;19814;48.224;11.422;2024-03-29T15:03:09;21.80;47.70
33476;DHT22;19814;48.224;11.422;2024-03-29T15:05:34;21.90;48.40
33476;DHT22;19814;48.224;11.422;2024-03-29T15:08:01;21.90;49.60
33476;DHT22;19814;48.224;11.422;2024-03-29T15:10:26;21.80;49.20
33476;DHT22;19814;48.224;11.422;2024-03-29T15:12:52;21.90;47.60
33476;DHT22;19814;48.224;11.422;2024-03-29T15:15:17;21.60;49.40
33476;DHT22;19814;48.224;11.422;2024-03-29T15:17:43;21.70;49.00
33476;DHT22;19814;48.224;11.422;2024-03-29T15:20:09;21.50;50.20